Upatoi, Georgia
Current Conditions -  °F | °C
As of 2:51 PM on Thursday 29 Jan 2015 (Local Time) from KCSG Reporting Station
Clear Clear  
Wind Chill: 60°   Ceiling: Unl
Heat Index: 60°   Visibility: 10mi
Dew Point: 30°   Wind: 9mph
Humidity: 32%   Direction: 240°WSW
Pressure: 30.19"   Gusts: NA
Location:  32.55°N, 84.74°W
Report Text: KCSG 291951Z 24008KT 10SM CLR 16/M01 A3019 RMK AO2 SLP224 T01561011
Loading
Personal Weather Stations






























Interactive Weather Map New forecast layout! Learn more

10-Day Weather Forecast

Advertisements
Track Severe Weather on mobile